sim
Sign-in with your pilot id or email,
or register
Callsign
Passwort

Schedule Details

Flight Number: OEO6669
Departure: London Heathrow Airport (EGLL) at 19:05
Arrival: Munich Airport (EDDM) at 21:15

Weather Information
Getting current METAR information for EGLL 240350Z AUTO 18007KT 9999 -RA FEW031/// BKN039/// BKN049/// //////TCU 09/08 Q0998 TEMPO SHRA
Getting current METAR information for EDDM 240350Z VRB01KT CAVOK 10/10 Q1009 NOSIG

Schedule Frequency

Route Map